sensor_id;sensor_type;location;lat;lon;timestamp;P1;durP1;ratioP1;P2;durP2;ratioP2
13793;SDS011;31160;49.500;7.772;2022-08-14T00:01:55;1.60;;;1.43;;
13793;SDS011;31160;49.500;7.772;2022-08-14T00:04:23;2.13;;;1.47;;
13793;SDS011;31160;49.500;7.772;2022-08-14T00:07:00;3.17;;;1.60;;
13793;SDS011;31160;49.500;7.772;2022-08-14T00:09:28;2.07;;;1.60;;
13793;SDS011;31160;49.500;7.772;2022-08-14T00:11:58;1.90;;;1.67;;
13793;SDS011;31160;49.500;7.772;2022-08-14T00:14:25;2.00;;;1.77;;
13793;SDS011;31160;49.500;7.772;2022-08-14T00:16:54;3.00;;;1.27;;
13793;SDS011;31160;49.500;7.772;2022-08-14T00:19:21;1.77;;;1.40;;
13793;SDS011;31160;49.500;7.772;2022-08-14T00:21:49;1.50;;;1.13;;
13793;SDS011;31160;49.500;7.772;2022-08-14T00:24:18;2.83;;;1.47;;
13793;SDS011;31160;49.500;7.772;2022-08-14T00:26:55;1.40;;;1.30;;
13793;SDS011;31160;49.500;7.772;2022-08-14T00:29:31;2.03;;;1.53;;
13793;SDS011;31160;49.500;7.772;2022-08-14T00:32:08;2.30;;;1.20;;
13793;SDS011;31160;49.500;7.772;2022-08-14T00:34:55;1.33;;;1.13;;
13793;SDS011;31160;49.500;7.772;2022-08-14T00:37:27;1.33;;;1.23;;
13793;SDS011;31160;49.500;7.772;2022-08-14T00:39:57;2.03;;;1.43;;
13793;SDS011;31160;49.500;7.772;2022-08-14T00:42:25;2.03;;;1.40;;
13793;SDS011;31160;49.500;7.772;2022-08-14T00:45:14;2.43;;;1.90;;
13793;SDS011;31160;49.500;7.772;2022-08-14T00:47:42;3.73;;;1.50;;
13793;SDS011;31160;49.500;7.772;2022-08-14T00:50:11;1.77;;;1.60;;
13793;SDS011;31160;49.500;7.772;2022-08-14T00:52:48;1.60;;;1.50;;
13793;SDS011;31160;49.500;7.772;2022-08-14T00:55:18;1.63;;;1.53;;
13793;SDS011;31160;49.500;7.772;2022-08-14T00:57:46;2.97;;;1.60;;
13793;SDS011;31160;49.500;7.772;2022-08-14T01:00:34;2.50;;;1.77;;
13793;SDS011;31160;49.500;7.772;2022-08-14T01:03:08;2.50;;;1.80;;
13793;SDS011;31160;49.500;7.772;2022-08-14T01:05:35;1.67;;;1.57;;
13793;SDS011;31160;49.500;7.772;2022-08-14T01:08:20;2.50;;;1.40;;
13793;SDS011;31160;49.500;7.772;2022-08-14T01:11:10;1.90;;;1.60;;
13793;SDS011;31160;49.500;7.772;2022-08-14T01:13:45;3.37;;;1.60;;
13793;SDS011;31160;49.500;7.772;2022-08-14T01:16:26;1.30;;;1.20;;
13793;SDS011;31160;49.500;7.772;2022-08-14T01:18:57;3.03;;;1.40;;
13793;SDS011;31160;49.500;7.772;2022-08-14T01:21:45;2.23;;;1.77;;
13793;SDS011;31160;49.500;7.772;2022-08-14T01:24:19;3.47;;;1.80;;
13793;SDS011;31160;49.500;7.772;2022-08-14T01:26:56;3.63;;;2.00;;
13793;SDS011;31160;49.500;7.772;2022-08-14T01:29:25;2.33;;;1.60;;
13793;SDS011;31160;49.500;7.772;2022-08-14T01:32:14;2.20;;;1.70;;
13793;SDS011;31160;49.500;7.772;2022-08-14T01:34:52;2.63;;;1.57;;
13793;SDS011;31160;49.500;7.772;2022-08-14T01:37:42;2.20;;;1.50;;
13793;SDS011;31160;49.500;7.772;2022-08-14T01:40:22;1.80;;;1.37;;
13793;SDS011;31160;49.500;7.772;2022-08-14T01:43:07;2.50;;;1.63;;
13793;SDS011;31160;49.500;7.772;2022-08-14T01:45:40;1.63;;;1.53;;
13793;SDS011;31160;49.500;7.772;2022-08-14T01:48:14;3.03;;;1.57;;
13793;SDS011;31160;49.500;7.772;2022-08-14T01:50:46;3.77;;;1.70;;
13793;SDS011;31160;49.500;7.772;2022-08-14T01:53:13;4.40;;;1.50;;
13793;SDS011;31160;49.500;7.772;2022-08-14T01:55:41;1.60;;;1.50;;
13793;SDS011;31160;49.500;7.772;2022-08-14T01:58:08;1.97;;;1.63;;
13793;SDS011;31160;49.500;7.772;2022-08-14T02:00:52;2.47;;;1.80;;
13793;SDS011;31160;49.500;7.772;2022-08-14T02:03:25;1.77;;;1.60;;
13793;SDS011;31160;49.500;7.772;2022-08-14T02:06:00;1.77;;;1.67;;
13793;SDS011;31160;49.500;7.772;2022-08-14T02:08:48;3.77;;;1.90;;
13793;SDS011;31160;49.500;7.772;2022-08-14T02:11:20;2.43;;;2.13;;
13793;SDS011;31160;49.500;7.772;2022-08-14T02:13:53;2.17;;;1.80;;
13793;SDS011;31160;49.500;7.772;2022-08-14T02:16:37;3.07;;;2.50;;
13793;SDS011;31160;49.500;7.772;2022-08-14T02:19:10;1.70;;;1.60;;
13793;SDS011;31160;49.500;7.772;2022-08-14T02:21:41;2.33;;;1.80;;
13793;SDS011;31160;49.500;7.772;2022-08-14T02:24:16;1.93;;;1.70;;
13793;SDS011;31160;49.500;7.772;2022-08-14T02:27:06;1.97;;;1.70;;
13793;SDS011;31160;49.500;7.772;2022-08-14T02:29:53;2.00;;;1.80;;
13793;SDS011;31160;49.500;7.772;2022-08-14T02:32:28;1.80;;;1.70;;
13793;SDS011;31160;49.500;7.772;2022-08-14T02:35:03;2.43;;;1.70;;
13793;SDS011;31160;49.500;7.772;2022-08-14T02:37:46;1.60;;;1.50;;
13793;SDS011;31160;49.500;7.772;2022-08-14T02:40:19;2.30;;;1.73;;
13793;SDS011;31160;49.500;7.772;2022-08-14T02:42:59;1.90;;;1.70;;
13793;SDS011;31160;49.500;7.772;2022-08-14T02:45:29;2.47;;;1.70;;
13793;SDS011;31160;49.500;7.772;2022-08-14T02:48:10;3.47;;;1.90;;
13793;SDS011;31160;49.500;7.772;2022-08-14T02:50:58;2.20;;;2.00;;
13793;SDS011;31160;49.500;7.772;2022-08-14T02:53:26;6.57;;;1.93;;
13793;SDS011;31160;49.500;7.772;2022-08-14T02:55:57;2.60;;;2.00;;
13793;SDS011;31160;49.500;7.772;2022-08-14T02:58:36;3.90;;;1.90;;
13793;SDS011;31160;49.500;7.772;2022-08-14T03:01:08;5.33;;;2.03;;
13793;SDS011;31160;49.500;7.772;2022-08-14T03:03:36;2.87;;;1.80;;
13793;SDS011;31160;49.500;7.772;2022-08-14T03:06:05;1.90;;;1.57;;
13793;SDS011;31160;49.500;7.772;2022-08-14T03:08:35;2.97;;;2.10;;
13793;SDS011;31160;49.500;7.772;2022-08-14T03:11:04;3.70;;;2.10;;
13793;SDS011;31160;49.500;7.772;2022-08-14T03:13:35;2.10;;;1.90;;
13793;SDS011;31160;49.500;7.772;2022-08-14T03:16:05;2.23;;;2.00;;
13793;SDS011;31160;49.500;7.772;2022-08-14T03:18:45;3.70;;;2.50;;
13793;SDS011;31160;49.500;7.772;2022-08-14T03:21:18;3.07;;;2.10;;
13793;SDS011;31160;49.500;7.772;2022-08-14T03:23:47;3.47;;;2.00;;
13793;SDS011;31160;49.500;7.772;2022-08-14T03:26:23;2.30;;;2.00;;
13793;SDS011;31160;49.500;7.772;2022-08-14T03:28:56;2.37;;;2.10;;
13793;SDS011;31160;49.500;7.772;2022-08-14T03:31:27;2.77;;;2.20;;
13793;SDS011;31160;49.500;7.772;2022-08-14T03:33:55;2.43;;;2.23;;
13793;SDS011;31160;49.500;7.772;2022-08-14T03:36:26;4.37;;;2.87;;
13793;SDS011;31160;49.500;7.772;2022-08-14T03:39:13;4.30;;;2.20;;
13793;SDS011;31160;49.500;7.772;2022-08-14T03:41:50;3.40;;;2.40;;
13793;SDS011;31160;49.500;7.772;2022-08-14T03:44:18;2.90;;;2.40;;
13793;SDS011;31160;49.500;7.772;2022-08-14T03:47:05;3.77;;;2.20;;
13793;SDS011;31160;49.500;7.772;2022-08-14T03:49:33;5.63;;;2.40;;
13793;SDS011;31160;49.500;7.772;2022-08-14T03:52:07;2.50;;;2.23;;
13793;SDS011;31160;49.500;7.772;2022-08-14T03:54:55;2.63;;;2.30;;
13793;SDS011;31160;49.500;7.772;2022-08-14T03:57:21;3.43;;;2.40;;
13793;SDS011;31160;49.500;7.772;2022-08-14T03:59:49;3.43;;;2.43;;
13793;SDS011;31160;49.500;7.772;2022-08-14T04:02:16;3.50;;;2.47;;
13793;SDS011;31160;49.500;7.772;2022-08-14T04:05:07;3.03;;;2.30;;
13793;SDS011;31160;49.500;7.772;2022-08-14T04:07:38;2.97;;;2.50;;
13793;SDS011;31160;49.500;7.772;2022-08-14T04:10:25;2.70;;;2.50;;
13793;SDS011;31160;49.500;7.772;2022-08-14T04:12:58;3.30;;;2.63;;
13793;SDS011;31160;49.500;7.772;2022-08-14T04:15:29;3.13;;;2.83;;
13793;SDS011;31160;49.500;7.772;2022-08-14T04:18:17;2.93;;;2.63;;
13793;SDS011;31160;49.500;7.772;2022-08-14T04:20:44;3.13;;;2.67;;
13793;SDS011;31160;49.500;7.772;2022-08-14T04:23:20;3.73;;;2.90;;
13793;SDS011;31160;49.500;7.772;2022-08-14T04:25:49;4.23;;;2.90;;
13793;SDS011;31160;49.500;7.772;2022-08-14T04:28:19;3.23;;;2.90;;
13793;SDS011;31160;49.500;7.772;2022-08-14T04:31:07;5.13;;;3.10;;
13793;SDS011;31160;49.500;7.772;2022-08-14T04:33:36;4.77;;;2.97;;
13793;SDS011;31160;49.500;7.772;2022-08-14T04:36:04;4.43;;;3.40;;
13793;SDS011;31160;49.500;7.772;2022-08-14T04:38:34;4.53;;;3.00;;
13793;SDS011;31160;49.500;7.772;2022-08-14T04:41:22;4.00;;;3.40;;
13793;SDS011;31160;49.500;7.772;2022-08-14T04:44:19;3.20;;;2.60;;
13793;SDS011;31160;49.500;7.772;2022-08-14T04:47:02;7.57;;;3.00;;
13793;SDS011;31160;49.500;7.772;2022-08-14T04:49:49;3.30;;;3.00;;
13793;SDS011;31160;49.500;7.772;2022-08-14T04:52:22;4.47;;;2.87;;
13793;SDS011;31160;49.500;7.772;2022-08-14T04:54:50;4.67;;;3.20;;
13793;SDS011;31160;49.500;7.772;2022-08-14T04:57:20;5.63;;;3.47;;
13793;SDS011;31160;49.500;7.772;2022-08-14T04:59:48;3.17;;;2.90;;
13793;SDS011;31160;49.500;7.772;2022-08-14T05:02:18;3.87;;;3.30;;
13793;SDS011;31160;49.500;7.772;2022-08-14T05:04:50;3.30;;;2.77;;
13793;SDS011;31160;49.500;7.772;2022-08-14T05:07:24;3.33;;;3.03;;
13793;SDS011;31160;49.500;7.772;2022-08-14T05:10:11;4.53;;;4.13;;
13793;SDS011;31160;49.500;7.772;2022-08-14T05:12:42;4.17;;;3.57;;
13793;SDS011;31160;49.500;7.772;2022-08-14T05:15:30;3.30;;;3.00;;
13793;SDS011;31160;49.500;7.772;2022-08-14T05:17:58;6.20;;;3.50;;
13793;SDS011;31160;49.500;7.772;2022-08-14T05:20:48;3.53;;;3.10;;
13793;SDS011;31160;49.500;7.772;2022-08-14T05:23:37;4.33;;;3.40;;
13793;SDS011;31160;49.500;7.772;2022-08-14T05:26:07;3.77;;;3.47;;
13793;SDS011;31160;49.500;7.772;2022-08-14T05:28:43;3.47;;;3.13;;
13793;SDS011;31160;49.500;7.772;2022-08-14T05:31:12;5.23;;;3.20;;
13793;SDS011;31160;49.500;7.772;2022-08-14T05:33:46;3.73;;;3.30;;
13793;SDS011;31160;49.500;7.772;2022-08-14T05:36:22;4.63;;;3.83;;
13793;SDS011;31160;49.500;7.772;2022-08-14T05:38:52;3.63;;;3.27;;
13793;SDS011;31160;49.500;7.772;2022-08-14T05:41:20;5.73;;;4.13;;
13793;SDS011;31160;49.500;7.772;2022-08-14T05:43:48;4.57;;;3.87;;
13793;SDS011;31160;49.500;7.772;2022-08-14T05:46:17;3.53;;;3.17;;
13793;SDS011;31160;49.500;7.772;2022-08-14T05:48:48;5.00;;;3.23;;
13793;SDS011;31160;49.500;7.772;2022-08-14T05:51:23;3.70;;;3.13;;
13793;SDS011;31160;49.500;7.772;2022-08-14T05:53:51;4.27;;;3.40;;
13793;SDS011;31160;49.500;7.772;2022-08-14T05:56:38;4.43;;;3.23;;
13793;SDS011;31160;49.500;7.772;2022-08-14T05:59:05;4.97;;;3.50;;
13793;SDS011;31160;49.500;7.772;2022-08-14T06:01:33;4.10;;;3.60;;
13793;SDS011;31160;49.500;7.772;2022-08-14T06:04:00;5.43;;;3.40;;
13793;SDS011;31160;49.500;7.772;2022-08-14T06:06:30;5.37;;;3.93;;
13793;SDS011;31160;49.500;7.772;2022-08-14T06:09:03;3.93;;;3.50;;
13793;SDS011;31160;49.500;7.772;2022-08-14T06:11:34;5.20;;;3.50;;
13793;SDS011;31160;49.500;7.772;2022-08-14T06:14:01;3.97;;;3.57;;
13793;SDS011;31160;49.500;7.772;2022-08-14T06:16:31;8.27;;;3.87;;
13793;SDS011;31160;49.500;7.772;2022-08-14T06:18:58;6.10;;;4.10;;
13793;SDS011;31160;49.500;7.772;2022-08-14T06:21:25;4.20;;;3.67;;
13793;SDS011;31160;49.500;7.772;2022-08-14T06:23:54;4.33;;;3.50;;
13793;SDS011;31160;49.500;7.772;2022-08-14T06:26:24;3.87;;;3.47;;
13793;SDS011;31160;49.500;7.772;2022-08-14T06:28:55;3.80;;;3.40;;
13793;SDS011;31160;49.500;7.772;2022-08-14T06:31:23;6.47;;;3.87;;
13793;SDS011;31160;49.500;7.772;2022-08-14T06:33:49;6.83;;;4.23;;
13793;SDS011;31160;49.500;7.772;2022-08-14T06:36:37;6.10;;;4.00;;
13793;SDS011;31160;49.500;7.772;2022-08-14T06:39:05;5.33;;;4.60;;
13793;SDS011;31160;49.500;7.772;2022-08-14T06:41:36;5.20;;;4.70;;
13793;SDS011;31160;49.500;7.772;2022-08-14T06:44:25;5.43;;;4.63;;
13793;SDS011;31160;49.500;7.772;2022-08-14T06:46:59;7.30;;;4.50;;
13793;SDS011;31160;49.500;7.772;2022-08-14T06:49:28;5.20;;;4.50;;
13793;SDS011;31160;49.500;7.772;2022-08-14T06:51:55;5.60;;;5.10;;
13793;SDS011;31160;49.500;7.772;2022-08-14T06:54:23;7.00;;;5.40;;
13793;SDS011;31160;49.500;7.772;2022-08-14T06:56:57;5.97;;;5.43;;
13793;SDS011;31160;49.500;7.772;2022-08-14T06:59:24;6.67;;;5.30;;
13793;SDS011;31160;49.500;7.772;2022-08-14T07:01:52;7.67;;;5.57;;
13793;SDS011;31160;49.500;7.772;2022-08-14T07:04:42;5.67;;;4.90;;
13793;SDS011;31160;49.500;7.772;2022-08-14T07:07:35;7.90;;;4.87;;
13793;SDS011;31160;49.500;7.772;2022-08-14T07:10:05;4.87;;;4.17;;
13793;SDS011;31160;49.500;7.772;2022-08-14T07:12:42;5.50;;;4.87;;
13793;SDS011;31160;49.500;7.772;2022-08-14T07:15:28;6.33;;;4.77;;
13793;SDS011;31160;49.500;7.772;2022-08-14T07:17:59;5.43;;;4.33;;
13793;SDS011;31160;49.500;7.772;2022-08-14T07:20:26;6.57;;;4.73;;
13793;SDS011;31160;49.500;7.772;2022-08-14T07:22:57;6.33;;;4.87;;
13793;SDS011;31160;49.500;7.772;2022-08-14T07:25:37;6.70;;;4.70;;
13793;SDS011;31160;49.500;7.772;2022-08-14T07:30:47;4.80;;;4.30;;
13793;SDS011;31160;49.500;7.772;2022-08-14T07:33:18;6.37;;;4.40;;
13793;SDS011;31160;49.500;7.772;2022-08-14T07:35:54;6.70;;;4.60;;
13793;SDS011;31160;49.500;7.772;2022-08-14T07:38:25;7.53;;;4.63;;
13793;SDS011;31160;49.500;7.772;2022-08-14T07:41:02;4.87;;;4.20;;
13793;SDS011;31160;49.500;7.772;2022-08-14T07:43:39;5.30;;;4.20;;
13793;SDS011;31160;49.500;7.772;2022-08-14T07:46:07;5.00;;;4.37;;
13793;SDS011;31160;49.500;7.772;2022-08-14T07:48:39;9.73;;;4.63;;
13793;SDS011;31160;49.500;7.772;2022-08-14T07:51:07;11.47;;;4.63;;
13793;SDS011;31160;49.500;7.772;2022-08-14T07:53:37;6.87;;;3.90;;
13793;SDS011;31160;49.500;7.772;2022-08-14T07:56:06;4.83;;;4.43;;
13793;SDS011;31160;49.500;7.772;2022-08-14T07:58:56;4.67;;;4.20;;
13793;SDS011;31160;49.500;7.772;2022-08-14T08:01:23;6.50;;;4.43;;
13793;SDS011;31160;49.500;7.772;2022-08-14T08:03:55;6.40;;;4.60;;
13793;SDS011;31160;49.500;7.772;2022-08-14T08:06:26;5.30;;;4.50;;
13793;SDS011;31160;49.500;7.772;2022-08-14T08:08:57;5.90;;;4.40;;
13793;SDS011;31160;49.500;7.772;2022-08-14T08:11:32;7.90;;;4.70;;
13793;SDS011;31160;49.500;7.772;2022-08-14T08:14:04;5.63;;;4.70;;
13793;SDS011;31160;49.500;7.772;2022-08-14T08:16:44;6.40;;;4.07;;
13793;SDS011;31160;49.500;7.772;2022-08-14T08:19:16;6.10;;;4.53;;
13793;SDS011;31160;49.500;7.772;2022-08-14T08:21:44;5.13;;;4.40;;
13793;SDS011;31160;49.500;7.772;2022-08-14T08:24:12;5.40;;;4.13;;
13793;SDS011;31160;49.500;7.772;2022-08-14T08:26:46;5.17;;;4.00;;
13793;SDS011;31160;49.500;7.772;2022-08-14T08:29:22;4.20;;;3.80;;
13793;SDS011;31160;49.500;7.772;2022-08-14T08:31:55;4.57;;;3.60;;
13793;SDS011;31160;49.500;7.772;2022-08-14T08:34:41;5.23;;;4.07;;
13793;SDS011;31160;49.500;7.772;2022-08-14T08:37:12;3.67;;;3.37;;
13793;SDS011;31160;49.500;7.772;2022-08-14T08:39:44;4.63;;;3.33;;
13793;SDS011;31160;49.500;7.772;2022-08-14T08:42:28;8.63;;;3.13;;
13793;SDS011;31160;49.500;7.772;2022-08-14T08:45:05;3.50;;;3.20;;
13793;SDS011;31160;49.500;7.772;2022-08-14T08:47:38;4.37;;;3.87;;
13793;SDS011;31160;49.500;7.772;2022-08-14T08:50:26;5.47;;;3.60;;
13793;SDS011;31160;49.500;7.772;2022-08-14T08:53:13;6.67;;;3.30;;
13793;SDS011;31160;49.500;7.772;2022-08-14T08:55:41;4.67;;;3.50;;
13793;SDS011;31160;49.500;7.772;2022-08-14T08:58:10;5.10;;;3.10;;
13793;SDS011;31160;49.500;7.772;2022-08-14T09:00:51;3.13;;;2.83;;
13793;SDS011;31160;49.500;7.772;2022-08-14T09:03:24;3.77;;;3.47;;
13793;SDS011;31160;49.500;7.772;2022-08-14T09:05:54;4.90;;;3.17;;
13793;SDS011;31160;49.500;7.772;2022-08-14T09:08:24;4.00;;;3.17;;
13793;SDS011;31160;49.500;7.772;2022-08-14T09:10:59;5.73;;;3.40;;
13793;SDS011;31160;49.500;7.772;2022-08-14T09:13:49;4.57;;;3.43;;
13793;SDS011;31160;49.500;7.772;2022-08-14T09:16:21;5.17;;;3.33;;
13793;SDS011;31160;49.500;7.772;2022-08-14T09:18:50;5.20;;;3.30;;
13793;SDS011;31160;49.500;7.772;2022-08-14T09:21:19;5.53;;;3.30;;
13793;SDS011;31160;49.500;7.772;2022-08-14T09:23:51;8.10;;;3.30;;
13793;SDS011;31160;49.500;7.772;2022-08-14T09:26:40;5.10;;;3.43;;
13793;SDS011;31160;49.500;7.772;2022-08-14T09:29:09;4.90;;;2.93;;
13793;SDS011;31160;49.500;7.772;2022-08-14T09:31:38;4.37;;;3.00;;
13793;SDS011;31160;49.500;7.772;2022-08-14T09:46:07;3.07;;;2.73;;
13793;SDS011;31160;49.500;7.772;2022-08-14T09:48:35;3.30;;;3.00;;
13793;SDS011;31160;49.500;7.772;2022-08-14T09:51:03;3.47;;;3.00;;
13793;SDS011;31160;49.500;7.772;2022-08-14T09:53:42;3.20;;;2.90;;
13793;SDS011;31160;49.500;7.772;2022-08-14T09:56:43;7.90;;;3.00;;
13793;SDS011;31160;49.500;7.772;2022-08-14T09:59:22;6.73;;;3.10;;
13793;SDS011;31160;49.500;7.772;2022-08-14T10:01:53;3.23;;;2.77;;
13793;SDS011;31160;49.500;7.772;2022-08-14T10:04:25;3.30;;;2.83;;
13793;SDS011;31160;49.500;7.772;2022-08-14T10:07:03;3.20;;;2.90;;
13793;SDS011;31160;49.500;7.772;2022-08-14T10:09:33;3.10;;;2.80;;
13793;SDS011;31160;49.500;7.772;2022-08-14T10:12:43;2.60;;;2.30;;
13793;SDS011;31160;49.500;7.772;2022-08-14T10:15:19;3.23;;;2.17;;
13793;SDS011;31160;49.500;7.772;2022-08-14T10:18:03;2.17;;;1.80;;
13793;SDS011;31160;49.500;7.772;2022-08-14T10:20:53;4.67;;;2.40;;
13793;SDS011;31160;49.500;7.772;2022-08-14T10:23:27;3.60;;;2.30;;
13793;SDS011;31160;49.500;7.772;2022-08-14T10:26:06;3.13;;;2.30;;
13793;SDS011;31160;49.500;7.772;2022-08-14T10:28:37;2.27;;;2.07;;
13793;SDS011;31160;49.500;7.772;2022-08-14T10:31:28;2.07;;;1.83;;
13793;SDS011;31160;49.500;7.772;2022-08-14T10:34:12;3.00;;;2.20;;
13793;SDS011;31160;49.500;7.772;2022-08-14T10:37:00;6.87;;;2.57;;
13793;SDS011;31160;49.500;7.772;2022-08-14T10:39:39;3.20;;;2.40;;
13793;SDS011;31160;49.500;7.772;2022-08-14T10:42:37;4.07;;;2.00;;
13793;SDS011;31160;49.500;7.772;2022-08-14T10:47:51;2.10;;;1.90;;
13793;SDS011;31160;49.500;7.772;2022-08-14T10:50:34;1.80;;;1.70;;
13793;SDS011;31160;49.500;7.772;2022-08-14T10:53:04;2.27;;;1.70;;
13793;SDS011;31160;49.500;7.772;2022-08-14T10:55:34;2.73;;;1.70;;
13793;SDS011;31160;49.500;7.772;2022-08-14T10:58:11;3.80;;;2.20;;
13793;SDS011;31160;49.500;7.772;2022-08-14T11:00:41;5.13;;;1.87;;
13793;SDS011;31160;49.500;7.772;2022-08-14T11:03:22;4.33;;;2.20;;
13793;SDS011;31160;49.500;7.772;2022-08-14T11:06:14;2.63;;;2.40;;
13793;SDS011;31160;49.500;7.772;2022-08-14T11:08:46;3.67;;;2.60;;
13793;SDS011;31160;49.500;7.772;2022-08-14T11:11:16;1.83;;;1.73;;
13793;SDS011;31160;49.500;7.772;2022-08-14T11:13:44;2.10;;;1.80;;
13793;SDS011;31160;49.500;7.772;2022-08-14T11:16:13;2.60;;;2.07;;
13793;SDS011;31160;49.500;7.772;2022-08-14T11:18:45;2.57;;;1.87;;
13793;SDS011;31160;49.500;7.772;2022-08-14T11:21:17;5.30;;;1.90;;
13793;SDS011;31160;49.500;7.772;2022-08-14T11:23:46;2.87;;;2.10;;
13793;SDS011;31160;49.500;7.772;2022-08-14T11:26:19;4.30;;;2.10;;
13793;SDS011;31160;49.500;7.772;2022-08-14T11:28:50;3.50;;;2.03;;
13793;SDS011;31160;49.500;7.772;2022-08-14T11:31:20;3.37;;;2.30;;
13793;SDS011;31160;49.500;7.772;2022-08-14T11:33:53;2.30;;;2.10;;
13793;SDS011;31160;49.500;7.772;2022-08-14T11:36:26;6.47;;;2.30;;
13793;SDS011;31160;49.500;7.772;2022-08-14T11:39:20;4.00;;;2.03;;
13793;SDS011;31160;49.500;7.772;2022-08-14T11:42:00;2.20;;;2.03;;
13793;SDS011;31160;49.500;7.772;2022-08-14T11:44:49;3.20;;;2.53;;
13793;SDS011;31160;49.500;7.772;2022-08-14T11:50:28;3.57;;;2.20;;
13793;SDS011;31160;49.500;7.772;2022-08-14T11:53:04;4.33;;;2.43;;
13793;SDS011;31160;49.500;7.772;2022-08-14T11:55:34;3.13;;;2.00;;
13793;SDS011;31160;49.500;7.772;2022-08-14T11:58:08;4.33;;;2.20;;
13793;SDS011;31160;49.500;7.772;2022-08-14T12:00:48;2.10;;;1.90;;
13793;SDS011;31160;49.500;7.772;2022-08-14T12:03:18;2.67;;;2.40;;
13793;SDS011;31160;49.500;7.772;2022-08-14T12:06:06;3.93;;;2.50;;
13793;SDS011;31160;49.500;7.772;2022-08-14T12:08:54;2.03;;;1.80;;
13793;SDS011;31160;49.500;7.772;2022-08-14T12:11:25;2.57;;;2.10;;
13793;SDS011;31160;49.500;7.772;2022-08-14T12:14:08;5.03;;;2.67;;
13793;SDS011;31160;49.500;7.772;2022-08-14T12:16:59;2.63;;;2.07;;
13793;SDS011;31160;49.500;7.772;2022-08-14T12:19:42;2.33;;;2.10;;
13793;SDS011;31160;49.500;7.772;2022-08-14T12:22:10;2.80;;;2.50;;
13793;SDS011;31160;49.500;7.772;2022-08-14T12:24:55;3.63;;;2.20;;
13793;SDS011;31160;49.500;7.772;2022-08-14T12:27:33;4.77;;;2.60;;
13793;SDS011;31160;49.500;7.772;2022-08-14T12:30:07;4.47;;;2.27;;
13793;SDS011;31160;49.500;7.772;2022-08-14T12:32:39;2.53;;;2.10;;
13793;SDS011;31160;49.500;7.772;2022-08-14T12:35:10;4.70;;;2.07;;
13793;SDS011;31160;49.500;7.772;2022-08-14T12:37:37;2.70;;;2.50;;
13793;SDS011;31160;49.500;7.772;2022-08-14T12:40:09;4.23;;;2.20;;
13793;SDS011;31160;49.500;7.772;2022-08-14T12:42:46;3.63;;;2.33;;
13793;SDS011;31160;49.500;7.772;2022-08-14T12:45:27;3.50;;;2.50;;
13793;SDS011;31160;49.500;7.772;2022-08-14T12:47:59;2.30;;;2.10;;
13793;SDS011;31160;49.500;7.772;2022-08-14T12:50:47;4.13;;;2.17;;
13793;SDS011;31160;49.500;7.772;2022-08-14T12:53:19;5.33;;;2.10;;
13793;SDS011;31160;49.500;7.772;2022-08-14T12:55:56;2.30;;;2.10;;
13793;SDS011;31160;49.500;7.772;2022-08-14T12:58:48;2.20;;;2.00;;
13793;SDS011;31160;49.500;7.772;2022-08-14T13:01:18;2.17;;;1.90;;
13793;SDS011;31160;49.500;7.772;2022-08-14T13:03:48;3.77;;;1.80;;
13793;SDS011;31160;49.500;7.772;2022-08-14T13:06:17;1.70;;;1.60;;
13793;SDS011;31160;49.500;7.772;2022-08-14T13:08:45;4.53;;;1.83;;
13793;SDS011;31160;49.500;7.772;2022-08-14T13:11:19;2.97;;;1.40;;
13793;SDS011;31160;49.500;7.772;2022-08-14T13:13:49;1.77;;;1.57;;
13793;SDS011;31160;49.500;7.772;2022-08-14T13:16:22;1.87;;;1.60;;
13793;SDS011;31160;49.500;7.772;2022-08-14T13:19:05;1.63;;;1.50;;
13793;SDS011;31160;49.500;7.772;2022-08-14T13:21:38;2.53;;;1.73;;
13793;SDS011;31160;49.500;7.772;2022-08-14T13:24:26;1.77;;;1.67;;
13793;SDS011;31160;49.500;7.772;2022-08-14T13:26:58;2.63;;;1.70;;
13793;SDS011;31160;49.500;7.772;2022-08-14T13:29:29;2.23;;;1.80;;
13793;SDS011;31160;49.500;7.772;2022-08-14T13:32:02;1.70;;;1.60;;
13793;SDS011;31160;49.500;7.772;2022-08-14T13:34:31;1.90;;;1.50;;
13793;SDS011;31160;49.500;7.772;2022-08-14T13:36:58;2.93;;;1.57;;
13793;SDS011;31160;49.500;7.772;2022-08-14T13:39:29;1.40;;;1.30;;
13793;SDS011;31160;49.500;7.772;2022-08-14T13:42:03;2.47;;;1.67;;
13793;SDS011;31160;49.500;7.772;2022-08-14T13:44:39;1.60;;;1.37;;
13793;SDS011;31160;49.500;7.772;2022-08-14T13:47:09;1.53;;;1.30;;
13793;SDS011;31160;49.500;7.772;2022-08-14T13:49:36;4.30;;;1.30;;
13793;SDS011;31160;49.500;7.772;2022-08-14T13:52:22;1.70;;;1.47;;
13793;SDS011;31160;49.500;7.772;2022-08-14T13:55:11;3.23;;;1.57;;
13793;SDS011;31160;49.500;7.772;2022-08-14T13:57:41;2.47;;;1.53;;
13793;SDS011;31160;49.500;7.772;2022-08-14T14:00:22;2.83;;;1.23;;
13793;SDS011;31160;49.500;7.772;2022-08-14T14:03:02;5.27;;;1.50;;
13793;SDS011;31160;49.500;7.772;2022-08-14T14:05:34;2.43;;;1.70;;
13793;SDS011;31160;49.500;7.772;2022-08-14T14:08:20;2.30;;;1.40;;
13793;SDS011;31160;49.500;7.772;2022-08-14T14:11:10;3.40;;;1.60;;
13793;SDS011;31160;49.500;7.772;2022-08-14T14:13:42;3.37;;;1.60;;
13793;SDS011;31160;49.500;7.772;2022-08-14T14:16:12;1.50;;;1.40;;
13793;SDS011;31160;49.500;7.772;2022-08-14T14:18:50;4.07;;;1.53;;
13793;SDS011;31160;49.500;7.772;2022-08-14T14:21:24;4.93;;;1.63;;
13793;SDS011;31160;49.500;7.772;2022-08-14T14:23:58;4.40;;;1.50;;
13793;SDS011;31160;49.500;7.772;2022-08-14T14:26:27;1.77;;;1.30;;
13793;SDS011;31160;49.500;7.772;2022-08-14T14:28:58;2.10;;;1.27;;
13793;SDS011;31160;49.500;7.772;2022-08-14T14:31:28;1.50;;;1.27;;
13793;SDS011;31160;49.500;7.772;2022-08-14T14:33:59;3.37;;;1.40;;
13793;SDS011;31160;49.500;7.772;2022-08-14T14:36:45;2.20;;;1.60;;
13793;SDS011;31160;49.500;7.772;2022-08-14T14:39:17;1.73;;;1.43;;
13793;SDS011;31160;49.500;7.772;2022-08-14T14:41:53;3.10;;;1.80;;
13793;SDS011;31160;49.500;7.772;2022-08-14T14:44:23;2.57;;;1.70;;
13793;SDS011;31160;49.500;7.772;2022-08-14T14:46:52;1.77;;;1.60;;
13793;SDS011;31160;49.500;7.772;2022-08-14T14:49:22;2.00;;;1.50;;
13793;SDS011;31160;49.500;7.772;2022-08-14T14:52:08;3.77;;;1.40;;
13793;SDS011;31160;49.500;7.772;2022-08-14T14:54:56;4.20;;;1.50;;
13793;SDS011;31160;49.500;7.772;2022-08-14T14:57:28;2.67;;;1.37;;
13793;SDS011;31160;49.500;7.772;2022-08-14T15:00:03;2.80;;;1.70;;
13793;SDS011;31160;49.500;7.772;2022-08-14T15:02:42;1.97;;;1.77;;
13793;SDS011;31160;49.500;7.772;2022-08-14T15:05:12;2.73;;;1.50;;
13793;SDS011;31160;49.500;7.772;2022-08-14T15:07:41;1.50;;;1.40;;
13793;SDS011;31160;49.500;7.772;2022-08-14T15:10:11;2.40;;;1.40;;
13793;SDS011;31160;49.500;7.772;2022-08-14T15:12:56;3.73;;;1.40;;
13793;SDS011;31160;49.500;7.772;2022-08-14T15:15:30;2.17;;;1.80;;
13793;SDS011;31160;49.500;7.772;2022-08-14T15:17:58;3.80;;;1.73;;
13793;SDS011;31160;49.500;7.772;2022-08-14T15:20:26;4.53;;;1.80;;
13793;SDS011;31160;49.500;7.772;2022-08-14T15:22:57;2.90;;;1.60;;
13793;SDS011;31160;49.500;7.772;2022-08-14T15:25:41;1.50;;;1.40;;
13793;SDS011;31160;49.500;7.772;2022-08-14T15:28:18;1.70;;;1.60;;
13793;SDS011;31160;49.500;7.772;2022-08-14T15:30:48;6.20;;;1.90;;
13793;SDS011;31160;49.500;7.772;2022-08-14T15:33:24;1.70;;;1.50;;
13793;SDS011;31160;49.500;7.772;2022-08-14T15:36:30;2.63;;;1.70;;
13793;SDS011;31160;49.500;7.772;2022-08-14T15:39:01;1.70;;;1.53;;
13793;SDS011;31160;49.500;7.772;2022-08-14T15:41:29;1.63;;;1.43;;
13793;SDS011;31160;49.500;7.772;2022-08-14T15:44:06;2.23;;;1.50;;
13793;SDS011;31160;49.500;7.772;2022-08-14T15:46:52;1.70;;;1.40;;
13793;SDS011;31160;49.500;7.772;2022-08-14T15:49:20;4.17;;;1.37;;
13793;SDS011;31160;49.500;7.772;2022-08-14T15:51:49;1.47;;;1.37;;
13793;SDS011;31160;49.500;7.772;2022-08-14T15:54:17;1.77;;;1.40;;
13793;SDS011;31160;49.500;7.772;2022-08-14T15:57:00;2.67;;;1.40;;